Aérodrome :
LOGIN :

S'inscrire | Disclaimer

   EN    FR    IT 

 










Légende :    VFR   VFR Marginal   IFR   IFR Intensif   IFR Très Intensif
Visi : 
Plafond : 
>= 8 km
>= 3000ft
5 à 8 km
1000 à 3000 ft
1500m à 5 km
500 à 1000 ft
800 à 1500m
200 à 500 ft
< 800m
< 200 ft
Symboles :   Orages  Brouillard  Fortes neiges  Fortes précipitations  Vent > 20 kt
SIGMETs :   Divers  Orages  Givrage  Turbulence  Onde Orograph.  Cendres Volcan.







- Altitude de l'aérodrome : 1046 ft
- Code IATA : NUE


EDDN - Nuremberg

DERNIER METAR :
  • 241250Z 28008KT 240V340 9999 FEW032 14/06 Q1021 NOSIG

METARs EXPIRÉS :
  • 241220Z 29007KT 250V330 9999 FEW030 14/06 Q1022 NOSIG
  • 241150Z 28006KT 210V340 9000 FEW028 14/07 Q1022 NOSIG
  • 241120Z 29005KT 240V340 9000 FEW027 13/06 Q1022 NOSIG
  • 241050Z VRB04KT 9000 NSC 13/06 Q1023 NOSIG
  • 241020Z VRB03KT 9000 FEW021 12/06 Q1023 NOSIG

TAF TAF EDDN
Valide du 24 à 12h jusqu'au 25 à 12h UTC


241100Z 2412/2512 30005KT 9000 SCT020
TEMPO 2412/2416 30010KT
PROB30
TEMPO 2418/2421 BKN012
BECMG 2508/2510 30015G25KT
TEMPO 2510/2512 33020G30KT 4000 SHRAGS BKN020CB
Pas de NOTAMs connus pour ce terrain.



MET'MAP, la Météo Aéronautique d'un coup d'oeil ! - Copyright ORBIFLY Décembre 2007 - Disclaimer

ORBIFLY MET'MAP TEAM :

Programmation & Développement : Alexandra Zaïnal
Conception & Développement : Baudouin d'Aumeries
Co-Programmation & Développement : Marc-Olivier Méhu
Soutien technique & logistique : Manuel Goepfert

Contact : metmap@orbifly.com




SOURCES & CREDITS :

   NOAA